Time;durP1;ratioP1;P1;durP2;ratioP2;P2;SDS_P1;SDS_P2;PMS_P1;PMS_P2;Temp;Humidity;BMP_temperature;BMP_pressure;BME280_temperature;BME280_humidity;BME280_pressure;Samples;Min_cycle;Max_cycle;Signal;HPM_P1;HPM_P2
2022/06/11 00:02:24;;;;;;;35.15;12.25;;;29.40;86.30;;;;;;5083206;28;20027;-56
2022/06/11 00:04:51;;;;;;;38.78;12.50;;;29.40;86.40;;;;;;5083683;28;20182;-57
2022/06/11 00:07:21;;;;;;;36.30;12.85;;;29.40;86.40;;;;;;5086986;28;20044;-56
2022/06/11 00:09:49;;;;;;;38.08;12.32;;;29.40;86.40;;;;;;5087690;28;20032;-58
2022/06/11 00:12:16;;;;;;;29.45;10.55;;;29.40;86.50;;;;;;5087474;28;20020;-59
2022/06/11 00:14:45;;;;;;;32.58;11.27;;;29.40;86.50;;;;;;5087365;28;20028;-57
2022/06/11 00:17:14;;;;;;;28.88;9.25;;;29.40;86.60;;;;;;5086930;28;20044;-54
2022/06/11 00:19:42;;;;;;;29.58;9.40;;;29.30;86.50;;;;;;5087161;28;20092;-58
2022/06/11 00:22:10;;;;;;;31.83;9.15;;;29.40;86.60;;;;;;5087490;28;20028;-54
2022/06/11 00:24:38;;;;;;;33.50;9.23;;;29.40;86.50;;;;;;5087524;28;20025;-53
2022/06/11 00:27:05;;;;;;;32.97;8.57;;;29.30;86.50;;;;;;5087028;28;20241;-57
2022/06/11 00:29:35;;;;;;;29.50;8.70;;;29.30;86.50;;;;;;5087105;28;20059;-54
2022/06/11 00:32:01;;;;;;;32.17;8.80;;;29.30;86.50;;;;;;5086720;28;20329;-56
2022/06/11 00:34:28;;;;;;;34.13;9.80;;;29.30;86.50;;;;;;5086923;28;20036;-58
2022/06/11 00:36:55;;;;;;;28.85;9.30;;;29.30;86.50;;;;;;5086891;28;20027;-56
2022/06/11 00:39:27;;;;;;;37.08;9.68;;;29.30;86.70;;;;;;5086949;28;20012;-58
2022/06/11 00:41:58;;;;;;;29.60;9.52;;;29.30;86.40;;;;;;5086784;28;20021;-58
2022/06/11 00:44:24;;;;;;;35.53;10.15;;;29.30;86.40;;;;;;5086971;28;20040;-57
2022/06/11 00:47:00;;;;;;;34.45;9.85;;;29.30;86.60;;;;;;5086394;28;20336;-56
2022/06/11 00:49:42;;;;;;;33.40;9.25;;;29.20;86.80;;;;;;5086655;28;20041;-57
2022/06/11 00:52:38;;;;;;;35.80;10.18;;;29.30;87.00;;;;;;5086760;28;20082;-56
2022/06/11 00:55:14;;;;;;;37.85;10.57;;;29.20;87.10;;;;;;5086663;28;20025;-54
2022/06/11 00:58:06;;;;;;;31.83;11.00;;;29.20;87.10;;;;;;5086356;28;20024;-54
2022/06/11 01:00:41;;;;;;;32.38;11.18;;;29.20;87.20;;;;;;5086622;28;20024;-55
2022/06/11 01:03:14;;;;;;;31.85;10.23;;;29.10;87.10;;;;;;5086115;28;20025;-57
2022/06/11 01:05:47;;;;;;;28.42;8.93;;;29.10;86.90;;;;;;5094234;28;20087;-51
2022/06/11 01:08:34;;;;;;;36.95;9.32;;;29.10;86.70;;;;;;5086077;28;20023;-52
2022/06/11 01:11:25;;;;;;;47.25;9.77;;;29.00;86.80;;;;;;5085190;28;20028;-51
2022/06/11 01:14:11;;;;;;;31.15;8.48;;;29.00;86.70;;;;;;5097950;28;20024;-55
2022/06/11 01:16:54;;;;;;;59.22;11.43;;;29.00;86.70;;;;;;5094139;28;20060;-59
2022/06/11 01:19:39;;;;;;;54.58;10.65;;;28.90;86.80;;;;;;5088977;28;20233;-59
2022/06/11 01:22:14;;;;;;;53.47;11.07;;;28.90;87.40;;;;;;5093791;28;20087;-61
2022/06/11 01:24:44;;;;;;;43.35;10.65;;;28.90;86.90;;;;;;5086477;28;20269;-56
2022/06/11 01:27:17;;;;;;;36.63;9.85;;;28.90;87.20;;;;;;5086159;28;20028;-57
2022/06/11 01:29:53;;;;;;;38.40;9.20;;;28.90;87.50;;;;;;5096133;28;20068;-56
2022/06/11 01:32:33;;;;;;;30.13;8.10;;;28.80;87.50;;;;;;5105957;28;20420;-61
2022/06/11 01:35:02;;;;;;;31.15;8.55;;;28.80;87.40;;;;;;5106442;28;20063;-58
2022/06/11 01:37:39;;;;;;;30.00;8.60;;;28.80;87.50;;;;;;5106152;28;20027;-59
2022/06/11 01:40:49;;;;;;;30.60;7.38;;;28.80;87.50;;;;;;5106311;28;20020;-58
2022/06/11 01:43:24;;;;;;;24.85;7.43;;;28.70;87.60;;;;;;5098000;28;20024;-56
2022/06/11 01:45:51;;;;;;;29.90;8.48;;;28.70;87.50;;;;;;5106013;28;20016;-56
2022/06/11 01:48:24;;;;;;;25.02;8.02;;;28.70;87.60;;;;;;5105866;28;20016;-58
2022/06/11 01:50:59;;;;;;;29.48;7.90;;;28.70;87.80;;;;;;5105994;28;20024;-57
2022/06/11 01:53:33;;;;;;;27.92;7.63;;;28.70;87.90;;;;;;5105861;28;20038;-55
2022/06/11 01:56:30;;;;;;;29.33;8.27;;;28.70;88.30;;;;;;5096324;28;20319;-60
2022/06/11 01:59:44;;;;;;;28.55;8.13;;;28.70;87.80;;;;;;5094034;28;20028;-62
2022/06/11 02:02:19;;;;;;;30.27;7.55;;;28.60;87.90;;;;;;5087043;28;20035;-58
2022/06/11 02:05:02;;;;;;;26.08;7.50;;;28.60;88.10;;;;;;5101552;28;20024;-50
2022/06/11 02:07:34;;;;;;;26.05;7.10;;;28.60;88.20;;;;;;5105502;28;20020;-52
2022/06/11 02:10:37;;;;;;;23.30;7.25;;;28.60;88.10;;;;;;5095455;28;20020;-52
2022/06/11 02:13:35;;;;;;;26.67;7.70;;;28.60;87.90;;;;;;5078621;28;20097;-57
2022/06/11 02:16:15;;;;;;;23.90;6.95;;;28.60;87.90;;;;;;5090494;28;20055;-52
2022/06/11 02:18:45;;;;;;;22.40;6.53;;;28.60;87.80;;;;;;5095470;28;20075;-56
2022/06/11 02:21:16;;;;;;;25.50;6.80;;;28.60;87.80;;;;;;5094586;28;20091;-60
2022/06/11 02:23:51;;;;;;;27.13;7.20;;;28.60;87.80;;;;;;5093806;28;20023;-55
2022/06/11 02:26:28;;;;;;;29.92;7.32;;;28.60;87.80;;;;;;5104146;28;20432;-54
2022/06/11 02:28:57;;;;;;;25.40;6.85;;;28.60;87.80;;;;;;5105083;28;20026;-52
2022/06/11 02:31:28;;;;;;;28.15;7.20;;;28.70;87.90;;;;;;5105090;28;20134;-56
2022/06/11 02:33:55;;;;;;;22.85;6.82;;;28.70;87.80;;;;;;5105334;28;20083;-52
2022/06/11 02:36:27;;;;;;;21.85;7.10;;;28.60;87.70;;;;;;5104864;28;20099;-54
2022/06/11 02:38:56;;;;;;;28.52;7.38;;;28.60;87.70;;;;;;5097610;28;20265;-56
2022/06/11 02:41:27;;;;;;;28.77;7.05;;;28.60;87.70;;;;;;5087820;28;20032;-51
2022/06/11 02:43:54;;;;;;;23.93;7.13;;;28.60;87.70;;;;;;5084453;28;20020;-48
2022/06/11 02:49:07;;;;;;;29.60;7.15;;;28.60;87.70;;;;;;5084351;28;20015;-53
2022/06/11 02:51:34;;;;;;;29.08;7.30;;;28.60;87.70;;;;;;5087133;28;20061;-52
2022/06/11 02:54:01;;;;;;;30.70;8.02;;;28.60;87.80;;;;;;5093700;28;20091;-56
2022/06/11 02:56:28;;;;;;;26.15;7.93;;;28.60;87.90;;;;;;5090250;28;20032;-52
2022/06/11 02:58:56;;;;;;;28.88;7.68;;;28.60;87.80;;;;;;5084572;28;20016;-52
2022/06/11 03:01:23;;;;;;;25.42;7.70;;;28.60;88.00;;;;;;5084421;28;20021;-52
2022/06/11 03:03:51;;;;;;;26.00;7.22;;;28.60;87.90;;;;;;5084349;28;20012;-52
2022/06/11 03:06:20;;;;;;;27.42;8.00;;;28.60;88.00;;;;;;5083161;28;20032;-52
2022/06/11 03:08:47;;;;;;;30.63;8.30;;;28.60;88.10;;;;;;5084222;28;20008;-53
2022/06/11 03:11:14;;;;;;;32.60;7.80;;;28.60;88.30;;;;;;5084666;28;20024;-49
2022/06/11 03:13:41;;;;;;;28.00;8.27;;;28.60;88.40;;;;;;5084173;28;20074;-53
2022/06/11 03:16:07;;;;;;;31.15;8.32;;;28.60;88.40;;;;;;5083708;28;20044;-53
2022/06/11 03:18:34;;;;;;;27.10;7.88;;;28.50;88.40;;;;;;5084090;28;20023;-53
2022/06/11 03:21:01;;;;;;;33.35;8.70;;;28.50;88.40;;;;;;5083930;28;20325;-52
2022/06/11 03:23:29;;;;;;;30.58;8.10;;;28.50;88.40;;;;;;5084971;28;20040;-53
2022/06/11 03:25:56;;;;;;;35.97;8.27;;;28.50;88.40;;;;;;5093941;28;20029;-53
2022/06/11 03:28:27;;;;;;;28.05;7.63;;;28.50;88.40;;;;;;5091950;28;20024;-51
2022/06/11 03:30:55;;;;;;;33.05;8.85;;;28.50;88.40;;;;;;5094015;28;20312;-53
2022/06/11 03:33:24;;;;;;;26.77;8.05;;;28.50;88.40;;;;;;5083790;28;20024;-59
2022/06/11 03:35:52;;;;;;;24.73;7.88;;;28.50;88.50;;;;;;5084140;28;20028;-56
2022/06/11 03:38:20;;;;;;;24.92;8.23;;;28.50;88.50;;;;;;5083708;28;20020;-52
2022/06/11 03:40:47;;;;;;;29.90;7.53;;;28.40;88.40;;;;;;5083469;28;20021;-57
2022/06/11 03:43:14;;;;;;;28.90;7.35;;;28.40;88.30;;;;;;5083793;28;20066;-51
2022/06/11 03:45:41;;;;;;;31.98;8.05;;;28.40;88.30;;;;;;5083682;28;20100;-57
2022/06/11 03:48:08;;;;;;;27.75;8.00;;;28.40;88.30;;;;;;5083591;28;20048;-54
2022/06/11 03:50:37;;;;;;;27.02;8.00;;;28.40;88.10;;;;;;5083654;28;20388;-52
2022/06/11 03:53:06;;;;;;;28.35;7.85;;;28.40;88.00;;;;;;5083660;28;20025;-54
2022/06/11 03:55:34;;;;;;;32.80;8.55;;;28.40;87.90;;;;;;5083890;28;20031;-53
2022/06/11 03:58:01;;;;;;;28.45;7.95;;;28.40;87.80;;;;;;5083583;28;20085;-53
2022/06/11 04:03:16;;;;;;;31.88;7.78;;;28.40;87.70;;;;;;5083732;28;20020;-54
2022/06/11 04:05:44;;;;;;;29.13;7.50;;;28.40;87.50;;;;;;5083473;28;20066;-54
2022/06/11 04:08:12;;;;;;;29.42;8.20;;;28.40;87.40;;;;;;5091632;28;20054;-52
2022/06/11 04:10:39;;;;;;;26.70;8.00;;;28.40;87.00;;;;;;5088939;28;20308;-54
2022/06/11 04:13:08;;;;;;;31.50;8.02;;;28.40;86.90;;;;;;5083614;28;20020;-53
2022/06/11 04:15:37;;;;;;;31.08;8.48;;;28.40;86.70;;;;;;5083119;28;20044;-53
2022/06/11 04:18:05;;;;;;;32.67;8.18;;;28.30;86.40;;;;;;5083569;28;20208;-56
2022/06/11 04:20:32;;;;;;;30.50;7.93;;;28.30;86.40;;;;;;5083650;28;20240;-52
2022/06/11 04:23:00;;;;;;;27.35;7.65;;;28.40;86.40;;;;;;5083241;28;20087;-53
2022/06/11 04:25:27;;;;;;;30.30;8.20;;;28.30;86.00;;;;;;5083654;28;20033;-55
2022/06/11 04:27:53;;;;;;;31.48;8.02;;;28.40;86.20;;;;;;5083466;28;20017;-51
2022/06/11 04:30:23;;;;;;;28.83;7.50;;;28.40;86.20;;;;;;5083072;28;20034;-52
2022/06/11 04:32:50;;;;;;;28.60;8.13;;;28.30;86.10;;;;;;5083348;28;20369;-54
2022/06/11 04:35:17;;;;;;;29.70;7.32;;;28.30;86.10;;;;;;5083604;28;20056;-51
2022/06/11 04:37:44;;;;;;;33.13;8.45;;;28.30;86.10;;;;;;5083045;28;20016;-51
2022/06/11 04:40:13;;;;;;;27.92;8.30;;;28.30;86.00;;;;;;5083498;28;20021;-51
2022/06/11 04:42:39;;;;;;;29.73;8.35;;;28.30;85.90;;;;;;5083423;28;20062;-51
2022/06/11 04:45:06;;;;;;;31.73;8.32;;;28.30;86.00;;;;;;5083000;28;20036;-54
2022/06/11 04:47:33;;;;;;;35.90;9.02;;;28.30;85.90;;;;;;5083207;28;20016;-53
2022/06/11 04:50:04;;;;;;;32.97;8.50;;;28.30;85.80;;;;;;5083352;28;20051;-50
2022/06/11 04:52:32;;;;;;;30.27;8.32;;;28.30;85.80;;;;;;5083665;28;20020;-53
2022/06/11 04:54:58;;;;;;;33.03;8.88;;;28.30;85.70;;;;;;5086882;28;20252;-54
2022/06/11 04:57:25;;;;;;;32.63;8.23;;;28.30;85.80;;;;;;5086534;28;20079;-55
2022/06/11 04:59:52;;;;;;;27.52;8.02;;;28.30;85.80;;;;;;5086268;28;20047;-54
2022/06/11 05:02:22;;;;;;;32.15;7.95;;;28.30;85.80;;;;;;5086594;28;20020;-54
2022/06/11 05:04:49;;;;;;;32.75;8.40;;;28.20;85.70;;;;;;5086843;28;20293;-51
2022/06/11 05:07:16;;;;;;;27.10;7.35;;;28.30;85.80;;;;;;5086284;28;20062;-53
2022/06/11 05:09:43;;;;;;;27.35;8.05;;;28.20;85.70;;;;;;5086578;28;20202;-52
2022/06/11 05:12:11;;;;;;;31.60;8.70;;;28.20;85.70;;;;;;5086408;28;20027;-54
2022/06/11 05:14:38;;;;;;;28.88;7.95;;;28.20;85.60;;;;;;5085977;28;20029;-57
2022/06/11 05:17:05;;;;;;;29.25;8.02;;;28.20;85.60;;;;;;5086413;28;20036;-59
2022/06/11 05:19:32;;;;;;;30.10;7.35;;;28.20;85.70;;;;;;5086215;28;20029;-54
2022/06/11 05:21:59;;;;;;;31.63;7.55;;;28.20;85.70;;;;;;5086051;28;20012;-51
2022/06/11 05:24:26;;;;;;;28.95;8.02;;;28.20;85.80;;;;;;5086262;28;20228;-53
2022/06/11 05:26:59;;;;;;;30.83;8.35;;;28.20;85.70;;;;;;5086387;28;20088;-53
2022/06/11 05:29:31;;;;;;;32.90;8.25;;;28.20;85.60;;;;;;5085886;28;20043;-53
2022/06/11 05:31:58;;;;;;;33.78;8.70;;;28.20;85.60;;;;;;5086005;28;20182;-52
2022/06/11 05:34:25;;;;;;;33.33;8.15;;;28.10;85.60;;;;;;5085838;28;20044;-52
2022/06/11 05:36:51;;;;;;;28.20;7.68;;;28.10;85.60;;;;;;5086014;28;20060;-52
2022/06/11 05:39:18;;;;;;;30.63;7.78;;;28.10;85.50;;;;;;5085818;28;20013;-52
2022/06/11 05:41:44;;;;;;;39.22;8.85;;;28.10;85.60;;;;;;5085804;28;20021;-51
2022/06/11 05:44:11;;;;;;;36.10;8.95;;;28.10;85.70;;;;;;5085367;28;20368;-57
2022/06/11 05:46:38;;;;;;;32.05;8.35;;;28.10;85.60;;;;;;5085777;28;20373;-52
2022/06/11 05:49:08;;;;;;;32.75;7.95;;;28.00;85.50;;;;;;5085597;28;20017;-54
2022/06/11 05:51:39;;;;;;;34.58;9.00;;;28.00;85.50;;;;;;5085677;28;20032;-51
2022/06/11 05:54:20;;;;;;;34.70;8.63;;;28.00;85.60;;;;;;5085520;28;20261;-51
2022/06/11 05:56:47;;;;;;;35.47;8.98;;;28.00;85.60;;;;;;5085380;28;20027;-51
2022/06/11 05:59:18;;;;;;;31.80;8.10;;;28.00;85.60;;;;;;5085090;28;20235;-54
2022/06/11 06:01:46;;;;;;;29.63;8.18;;;28.00;85.60;;;;;;5085408;28;20209;-54
2022/06/11 06:04:12;;;;;;;37.60;9.10;;;28.00;85.60;;;;;;5084917;28;20028;-50
2022/06/11 06:06:39;;;;;;;29.90;8.00;;;27.90;85.50;;;;;;5085310;28;20016;-52
2022/06/11 06:09:06;;;;;;;34.35;8.45;;;27.90;85.50;;;;;;5085162;28;20020;-50
2022/06/11 06:11:33;;;;;;;32.92;8.10;;;27.90;85.40;;;;;;5085143;28;20095;-53
2022/06/11 06:13:59;;;;;;;31.73;8.50;;;27.90;85.40;;;;;;5085244;28;20294;-52
2022/06/11 06:16:29;;;;;;;29.67;8.30;;;27.90;85.40;;;;;;5085111;28;20056;-52
2022/06/11 06:18:58;;;;;;;27.90;7.38;;;27.90;85.40;;;;;;5085058;28;20031;-54
2022/06/11 06:21:29;;;;;;;30.38;8.57;;;27.90;85.50;;;;;;5085516;28;20228;-52
2022/06/11 06:23:56;;;;;;;27.67;7.85;;;27.90;85.60;;;;;;5084873;28;20306;-52
2022/06/11 06:26:23;;;;;;;34.20;8.20;;;27.90;85.70;;;;;;5085458;28;20083;-59
2022/06/11 06:28:50;;;;;;;33.08;8.90;;;27.80;85.60;;;;;;5084562;28;20024;-53
2022/06/11 06:31:18;;;;;;;32.75;8.18;;;27.80;85.60;;;;;;5085195;28;20201;-52
2022/06/11 06:33:45;;;;;;;31.70;8.30;;;27.80;85.70;;;;;;5084933;28;20252;-52
2022/06/11 06:36:14;;;;;;;36.58;8.70;;;27.80;85.90;;;;;;5084538;28;20021;-54
2022/06/11 06:38:41;;;;;;;34.45;8.95;;;27.80;85.90;;;;;;5084596;28;20036;-53
2022/06/11 06:41:08;;;;;;;34.42;8.32;;;27.80;85.90;;;;;;5085098;28;20036;-53
2022/06/11 06:43:36;;;;;;;33.95;8.07;;;27.80;86.00;;;;;;5084243;28;20020;-56
2022/06/11 06:46:03;;;;;;;31.13;8.05;;;27.80;86.00;;;;;;5084835;28;20025;-52
2022/06/11 06:48:29;;;;;;;33.40;8.18;;;27.80;86.10;;;;;;5084571;28;20017;-52
2022/06/11 06:50:58;;;;;;;30.48;8.65;;;27.70;86.00;;;;;;5085046;28;20037;-51
2022/06/11 06:53:26;;;;;;;28.52;8.57;;;27.70;86.20;;;;;;5084250;28;20084;-58
2022/06/11 06:55:53;;;;;;;34.95;8.98;;;27.70;86.20;;;;;;5084781;28;20036;-54
2022/06/11 06:58:20;;;;;;;33.30;7.65;;;27.70;86.20;;;;;;5083917;28;20099;-58
2022/06/11 07:00:47;;;;;;;37.97;7.90;;;27.70;86.30;;;;;;5084556;28;20083;-55
2022/06/11 07:03:15;;;;;;;29.30;8.20;;;27.70;86.30;;;;;;5084365;28;20017;-52
2022/06/11 07:05:43;;;;;;;31.80;8.60;;;27.70;86.30;;;;;;5084629;28;20138;-53
2022/06/11 07:08:11;;;;;;;28.38;8.02;;;27.60;86.30;;;;;;5084048;28;20028;-52
2022/06/11 07:10:37;;;;;;;30.23;7.72;;;27.70;86.30;;;;;;5084542;28;20024;-52
2022/06/11 07:13:04;;;;;;;31.98;8.05;;;27.60;86.30;;;;;;5083808;28;20232;-52
2022/06/11 07:15:31;;;;;;;34.47;8.30;;;27.60;86.30;;;;;;5083489;28;20037;-56
2022/06/11 07:18:42;;;;;;;27.23;7.45;;;27.60;86.30;;;;;;5083986;28;20036;-53
2022/06/11 07:21:16;;;;;;;32.55;8.43;;;27.60;86.30;;;;;;5084016;28;20217;-52
2022/06/11 07:23:53;;;;;;;27.48;8.60;;;27.60;86.10;;;;;;5084050;28;20020;-53
2022/06/11 07:26:26;;;;;;;33.03;7.63;;;27.50;86.10;;;;;;5084452;28;20035;-53
2022/06/11 07:29:04;;;;;;;30.90;8.00;;;27.50;86.00;;;;;;5083818;28;20020;-52
2022/06/11 07:31:31;;;;;;;29.35;8.07;;;27.50;86.00;;;;;;5083866;28;20023;-53
2022/06/11 07:33:59;;;;;;;34.72;8.18;;;27.50;85.90;;;;;;5084084;28;20028;-57
2022/06/11 07:36:26;;;;;;;29.58;7.63;;;27.50;86.00;;;;;;5084389;28;20051;-51
2022/06/11 07:38:53;;;;;;;30.73;8.65;;;27.50;85.90;;;;;;5083756;28;20414;-54
2022/06/11 07:41:19;;;;;;;28.75;7.90;;;27.50;85.90;;;;;;5084351;28;20028;-52
2022/06/11 07:43:46;;;;;;;35.42;7.93;;;27.40;86.00;;;;;;5083704;28;20080;-53
2022/06/11 07:46:12;;;;;;;36.03;7.93;;;27.40;86.00;;;;;;5084143;28;20020;-53
2022/06/11 07:48:39;;;;;;;30.05;7.03;;;27.40;86.10;;;;;;5083801;28;20316;-50
2022/06/11 07:51:06;;;;;;;33.13;8.90;;;27.40;86.20;;;;;;5084132;28;20028;-52
2022/06/11 07:53:33;;;;;;;32.85;8.18;;;27.40;86.40;;;;;;5083620;28;20021;-54
2022/06/11 07:56:00;;;;;;;31.80;6.95;;;27.40;86.30;;;;;;5084298;28;20021;-53
2022/06/11 07:58:32;;;;;;;29.80;7.85;;;27.40;86.20;;;;;;5083585;28;20024;-52
2022/06/11 08:00:59;;;;;;;30.77;7.80;;;27.30;86.10;;;;;;5083964;28;20227;-53
2022/06/11 08:03:31;;;;;;;26.40;7.43;;;27.30;86.10;;;;;;5083591;28;20028;-56
2022/06/11 08:05:58;;;;;;;28.85;7.70;;;27.30;86.10;;;;;;5083346;28;20025;-50
2022/06/11 08:08:26;;;;;;;30.52;7.75;;;27.30;86.10;;;;;;5083583;28;20040;-53
2022/06/11 08:10:53;;;;;;;30.95;7.40;;;27.30;85.90;;;;;;5083733;28;20021;-61
2022/06/11 08:13:19;;;;;;;29.42;7.82;;;27.30;85.80;;;;;;5083305;28;20032;-49
2022/06/11 08:15:48;;;;;;;29.08;8.00;;;27.30;85.70;;;;;;5083611;28;20049;-56
2022/06/11 08:18:15;;;;;;;27.02;7.15;;;27.30;85.50;;;;;;5083348;28;20028;-50
2022/06/11 08:20:41;;;;;;;30.70;7.63;;;27.30;85.40;;;;;;5083947;28;20029;-49
2022/06/11 08:23:08;;;;;;;30.35;7.78;;;27.20;85.20;;;;;;5083423;28;20114;-60
2022/06/11 08:25:36;;;;;;;26.38;7.25;;;27.20;85.30;;;;;;5083829;28;20205;-54
2022/06/11 08:28:02;;;;;;;27.73;7.03;;;27.20;85.30;;;;;;5086151;28;20075;-49
2022/06/11 08:30:31;;;;;;;28.02;7.53;;;27.20;85.30;;;;;;5087480;28;20052;-54
2022/06/11 08:32:57;;;;;;;27.85;7.85;;;27.20;85.30;;;;;;5087425;28;20020;-51
2022/06/11 08:35:26;;;;;;;28.98;6.78;;;27.20;85.30;;;;;;5087359;28;20097;-46
2022/06/11 08:37:53;;;;;;;27.90;7.05;;;27.20;85.30;;;;;;5086941;28;20063;-51
2022/06/11 08:40:38;;;;;;;25.15;7.15;;;27.10;85.20;;;;;;5087275;28;20021;-53
2022/06/11 08:43:24;;;;;;;34.17;7.50;;;27.20;85.20;;;;;;5086677;28;20242;-53
2022/06/11 08:45:56;;;;;;;31.95;8.25;;;27.10;85.00;;;;;;5076856;28;20287;-52
2022/06/11 08:48:46;;;;;;;30.48;7.57;;;27.10;85.00;;;;;;5086868;28;20036;-53
2022/06/11 08:51:21;;;;;;;26.02;7.13;;;27.10;85.00;;;;;;5086593;28;20074;-49
2022/06/11 08:53:51;;;;;;;26.35;6.95;;;27.10;84.80;;;;;;5087047;28;20016;-50
2022/06/11 08:56:32;;;;;;;27.45;6.88;;;27.00;84.80;;;;;;5086771;28;20032;-51
2022/06/11 08:59:23;;;;;;;26.20;6.80;;;27.10;84.80;;;;;;5086702;28;20044;-53
2022/06/11 09:02:05;;;;;;;28.77;7.00;;;27.10;84.90;;;;;;5086481;28;20052;-55
2022/06/11 09:05:08;;;;;;;27.48;7.07;;;27.00;84.90;;;;;;5086784;28;20050;-55
2022/06/11 09:07:59;;;;;;;25.23;6.88;;;27.00;84.70;;;;;;5086417;28;20028;-51
2022/06/11 09:10:44;;;;;;;29.17;7.40;;;27.00;84.80;;;;;;5086402;28;20030;-51
2022/06/11 09:13:23;;;;;;;26.88;6.72;;;27.00;84.90;;;;;;5086544;28;20087;-51
2022/06/11 09:15:56;;;;;;;20.83;6.85;;;27.00;85.00;;;;;;5086599;28;20333;-56
2022/06/11 09:18:44;;;;;;;19.85;6.00;;;27.00;85.10;;;;;;5086241;28;20028;-54
2022/06/11 09:21:24;;;;;;;27.27;7.55;;;27.00;85.30;;;;;;5086686;28;20032;-53
2022/06/11 09:24:26;;;;;;;25.75;6.50;;;26.90;85.30;;;;;;5086178;28;20024;-53
2022/06/11 09:27:06;;;;;;;24.42;7.05;;;26.90;85.40;;;;;;5053695;28;20224;-52
2022/06/11 09:29:47;;;;;;;25.20;6.13;;;26.90;85.50;;;;;;5086180;28;20039;-52
2022/06/11 09:32:17;;;;;;;28.20;6.95;;;26.90;85.70;;;;;;5086129;28;20083;-52
2022/06/11 09:34:51;;;;;;;27.10;7.45;;;26.90;86.00;;;;;;5086218;28;20027;-50
2022/06/11 09:38:28;;;;;;;23.83;7.00;;;26.90;85.90;;;;;;5085898;28;20055;-50
2022/06/11 09:41:14;;;;;;;24.75;6.60;;;26.90;86.20;;;;;;4986737;28;20026;-51
2022/06/11 09:43:41;;;;;;;29.17;7.43;;;26.80;86.50;;;;;;5083053;28;20025;-53
2022/06/11 09:46:07;;;;;;;25.80;7.43;;;26.80;86.50;;;;;;5086120;28;20174;-51
2022/06/11 09:49:12;;;;;;;25.60;6.78;;;26.80;86.60;;;;;;5085906;28;20189;-52
2022/06/11 09:52:05;;;;;;;27.10;6.88;;;26.80;86.80;;;;;;5054722;28;20036;-53
2022/06/11 09:54:31;;;;;;;;;;;26.80;86.90;;;;;;5085989;28;20025;-55
2022/06/11 09:57:19;;;;;;;29.23;7.55;;;26.80;86.90;;;;;;5085217;28;19909;-55
2022/06/11 10:00:10;;;;;;;28.08;7.50;;;26.70;87.00;;;;;;5085484;28;20062;-53
2022/06/11 10:03:09;;;;;;;27.83;7.07;;;26.70;87.00;;;;;;5085398;28;20032;-60
2022/06/11 10:05:55;;;;;;;25.08;7.80;;;26.70;87.10;;;;;;5085712;28;20025;-53
2022/06/11 10:08:47;;;;;;;31.55;7.85;;;26.70;87.30;;;;;;5085563;28;20369;-52
2022/06/11 10:11:48;;;;;;;28.73;8.32;;;26.70;87.30;;;;;;5085227;28;20028;-57
2022/06/11 10:14:30;;;;;;;28.08;8.80;;;26.70;87.20;;;;;;5085130;28;20028;-51
2022/06/11 10:17:09;;;;;;;30.77;8.90;;;26.60;87.00;;;;;;5084958;28;20416;-51
2022/06/11 10:20:14;;;;;;;25.85;8.15;;;26.60;87.10;;;;;;5085235;28;20095;-52
2022/06/11 10:23:18;;;;;;;26.42;9.90;;;26.60;87.10;;;;;;5085031;28;20301;-53
2022/06/11 10:26:10;;;;;;;29.30;9.40;;;26.60;86.90;;;;;;5085101;28;20342;-54
2022/06/11 10:29:01;;;;;;;30.13;9.20;;;26.60;86.70;;;;;;5084942;28;20060;-57
2022/06/11 10:31:38;;;;;;;31.58;8.85;;;26.60;86.40;;;;;;5085221;28;20236;-53
2022/06/11 10:34:24;;;;;;;31.15;8.10;;;26.60;86.50;;;;;;5084779;28;20035;-55
2022/06/11 10:37:04;;;;;;;28.67;7.97;;;26.50;86.30;;;;;;5084647;28;20053;-51
2022/06/11 10:39:36;;;;;;;28.75;7.82;;;26.50;86.30;;;;;;5084558;28;20024;-53
2022/06/11 10:42:25;;;;;;;27.98;7.30;;;26.50;86.00;;;;;;5084753;28;20074;-51
2022/06/11 10:44:54;;;;;;;28.95;8.20;;;26.50;85.90;;;;;;5084794;28;20070;-48
2022/06/11 10:47:35;;;;;;;28.45;7.70;;;26.50;85.90;;;;;;5084424;28;20024;-51
2022/06/11 10:50:18;;;;;;;28.80;7.88;;;26.50;85.80;;;;;;5084738;28;20087;-57
2022/06/11 10:52:59;;;;;;;28.27;7.38;;;26.60;85.90;;;;;;5084399;28;20062;-53
2022/06/11 10:56:00;;;;;;;29.40;7.53;;;26.50;85.60;;;;;;5084267;28;20096;-58
2022/06/11 10:58:56;;;;;;;24.90;7.43;;;26.50;85.60;;;;;;5073817;28;20084;-54
2022/06/11 11:01:33;;;;;;;28.00;7.38;;;26.50;85.60;;;;;;5081333;28;20383;-54
2022/06/11 11:04:18;;;;;;;32.90;7.60;;;26.50;85.60;;;;;;5083619;28;20209;-59
2022/06/11 11:06:44;;;;;;;28.17;7.05;;;26.60;85.50;;;;;;5083752;28;20028;-52
2022/06/11 11:10:42;;;;;;;27.02;7.72;;;26.50;85.00;;;;;;5121520;27;20406;-53
2022/06/11 11:13:29;;;;;;;30.45;7.20;;;26.40;85.80;;;;;;5120405;28;20212;-52
2022/06/11 11:16:07;;;;;;;28.30;7.13;;;26.40;85.60;;;;;;5120514;28;20046;-50
2022/06/11 11:18:42;;;;;;;35.92;7.22;;;26.60;85.70;;;;;;5121739;28;20031;-53
2022/06/11 11:21:23;;;;;;;32.75;9.07;;;26.60;85.20;;;;;;5121694;28;20023;-54
2022/06/11 11:23:51;;;;;;;32.78;8.93;;;26.70;85.10;;;;;;5121826;28;20038;-52
2022/06/11 11:26:35;;;;;;;23.15;7.47;;;26.90;84.70;;;;;;5119679;28;20208;-54
2022/06/11 11:29:08;;;;;;;31.38;7.75;;;27.00;84.10;;;;;;5119865;28;20200;-53
2022/06/11 11:32:04;;;;;;;21.70;7.00;;;27.10;83.50;;;;;;5119798;28;20020;-52
2022/06/11 11:34:41;;;;;;;26.75;7.22;;;27.20;83.30;;;;;;5120013;28;20092;-53
2022/06/11 11:37:14;;;;;;;27.13;6.90;;;27.40;83.10;;;;;;5119935;28;20020;-57
2022/06/11 11:39:49;;;;;;;;;;;27.60;83.00;;;;;;5120165;28;20020;-51
2022/06/11 11:42:22;;;;;;;25.27;7.43;;;27.80;82.60;;;;;;5121421;28;19911;-53
2022/06/11 11:44:51;;;;;;;16.88;6.47;;;27.90;82.10;;;;;;5121776;28;20027;-52
2022/06/11 11:47:39;;;;;;;24.33;6.90;;;28.00;81.60;;;;;;5121125;28;20031;-54
2022/06/11 11:50:20;;;;;;;28.88;7.28;;;28.00;81.50;;;;;;5121187;28;20043;-54
2022/06/11 11:52:54;;;;;;;26.35;6.50;;;27.90;81.60;;;;;;5117368;28;20004;-57
2022/06/11 11:55:30;;;;;;;24.67;6.65;;;27.90;81.90;;;;;;5100350;28;20020;-54
2022/06/11 11:58:29;;;;;;;34.35;7.00;;;27.80;82.30;;;;;;5100769;28;20082;-54
2022/06/11 12:01:17;;;;;;;38.10;7.85;;;27.80;82.70;;;;;;5092359;28;20051;-54
2022/06/11 12:03:52;;;;;;;39.15;8.60;;;27.70;83.00;;;;;;5114567;28;20019;-53
2022/06/11 12:06:29;;;;;;;31.90;8.15;;;27.70;83.50;;;;;;5120757;28;20214;-54
2022/06/11 12:08:56;;;;;;;33.65;7.78;;;27.80;83.70;;;;;;5120192;28;20042;-53
2022/06/11 12:11:29;;;;;;;38.33;7.78;;;27.80;83.90;;;;;;5120621;28;20020;-53
2022/06/11 12:14:14;;;;;;;28.42;7.80;;;27.80;84.00;;;;;;5121121;28;20027;-53
2022/06/11 12:16:50;;;;;;;29.02;7.30;;;27.80;84.00;;;;;;5120562;28;20007;-54
2022/06/11 12:19:30;;;;;;;29.50;7.63;;;27.80;84.20;;;;;;5120269;28;20035;-54
2022/06/11 12:22:09;;;;;;;31.30;8.30;;;27.80;84.40;;;;;;5106695;28;20020;-55
2022/06/11 12:24:48;;;;;;;28.25;7.47;;;27.80;84.60;;;;;;5106944;28;20024;-54
2022/06/11 12:27:32;;;;;;;26.30;7.55;;;27.90;84.70;;;;;;5106698;28;20024;-52
2022/06/11 12:30:05;;;;;;;30.67;7.50;;;27.90;84.60;;;;;;5107270;28;20024;-62
2022/06/11 12:32:34;;;;;;;25.67;6.90;;;27.90;84.60;;;;;;5086749;28;20044;-55
2022/06/11 12:35:05;;;;;;;27.48;7.03;;;27.90;84.30;;;;;;5086969;28;20021;-59
2022/06/11 12:37:54;;;;;;;30.05;7.13;;;28.00;84.40;;;;;;5086370;28;20017;-58
2022/06/11 12:40:35;;;;;;;28.55;7.22;;;28.00;84.50;;;;;;5106013;28;20032;-54
2022/06/11 12:43:26;;;;;;;27.08;7.10;;;28.00;84.70;;;;;;5105825;28;20028;-55
2022/06/11 12:46:11;;;;;;;26.30;7.03;;;28.00;84.90;;;;;;5106240;28;20378;-56
2022/06/11 12:49:04;;;;;;;25.23;7.13;;;28.00;84.90;;;;;;5106722;28;20031;-55
2022/06/11 12:51:52;;;;;;;26.30;7.00;;;28.00;85.00;;;;;;5106426;28;20188;-57
2022/06/11 12:54:34;;;;;;;29.35;7.35;;;28.00;85.20;;;;;;5094618;28;20322;-55
2022/06/11 12:57:33;;;;;;;28.83;7.30;;;28.00;85.40;;;;;;5086216;28;20121;-54
2022/06/11 13:00:15;;;;;;;29.67;7.57;;;28.00;85.50;;;;;;5086516;28;20024;-55
2022/06/11 13:02:53;;;;;;;25.20;7.47;;;28.00;85.90;;;;;;5085975;28;20213;-56
2022/06/11 13:05:52;;;;;;;26.95;7.40;;;28.10;85.40;;;;;;5086107;28;20212;-53
2022/06/11 13:08:36;;;;;;;29.20;7.03;;;28.10;85.50;;;;;;5085014;28;20044;-54
2022/06/11 13:11:12;;;;;;;27.13;6.72;;;28.10;85.50;;;;;;5085755;28;20017;-54
2022/06/11 13:13:48;;;;;;;28.85;7.40;;;28.10;85.60;;;;;;5086191;28;20280;-52
2022/06/11 13:16:40;;;;;;;23.95;6.82;;;28.10;85.80;;;;;;5085938;28;20009;-51
2022/06/11 13:19:18;;;;;;;26.95;7.20;;;28.10;85.80;;;;;;5086135;28;20186;-55
2022/06/11 13:22:15;;;;;;;26.88;7.57;;;28.10;86.00;;;;;;5085218;28;20016;-59